createdAt,value
2022-11-15T00:00:30.451Z,2.75
2022-11-15T00:03:53.900Z,3.28
2022-11-15T00:07:40.207Z,2.60
2022-11-15T00:10:58.678Z,3.00
2022-11-15T00:14:21.042Z,3.10
2022-11-15T00:17:44.706Z,3.75
2022-11-15T00:21:09.594Z,2.65
2022-11-15T00:24:31.864Z,3.70
2022-11-15T00:27:57.900Z,4.25
2022-11-15T00:31:20.528Z,2.63
2022-11-15T00:34:43.920Z,3.92
2022-11-15T00:38:06.093Z,3.30
2022-11-15T00:41:28.194Z,2.90
2022-11-15T00:44:50.659Z,3.40
2022-11-15T00:48:12.751Z,2.58
2022-11-15T00:51:37.195Z,2.55
2022-11-15T00:54:59.396Z,4.10
2022-11-15T00:58:22.016Z,3.38
2022-11-15T01:01:44.258Z,3.37
2022-11-15T01:05:08.185Z,2.35
2022-11-15T01:08:31.985Z,2.10
2022-11-15T01:11:54.843Z,2.83
2022-11-15T01:15:17.163Z,3.03
2022-11-15T01:18:39.523Z,2.90
2022-11-15T01:22:02.300Z,2.70
2022-11-15T01:25:25.994Z,2.45
2022-11-15T01:28:48.527Z,2.85
2022-11-15T01:32:10.868Z,2.88
2022-11-15T01:35:33.261Z,2.87
2022-11-15T01:38:56.711Z,3.67
2022-11-15T01:42:20.854Z,2.20
2022-11-15T01:45:43.526Z,3.13
2022-11-15T01:49:14.971Z,2.85
2022-11-15T01:52:40.273Z,3.07
2022-11-15T01:56:06.501Z,2.95
2022-11-15T01:59:31.312Z,2.30
2022-11-15T02:02:53.702Z,2.15
2022-11-15T02:06:17.258Z,2.67
2022-11-15T02:09:41.390Z,2.67
2022-11-15T02:13:04.616Z,2.75
2022-11-15T02:16:45.638Z,2.78
2022-11-15T02:20:46.618Z,2.38
2022-11-15T02:24:47.750Z,2.78
2022-11-15T02:28:43.781Z,2.73
2022-11-15T02:32:20.965Z,2.05
2022-11-15T02:35:55.599Z,2.17
2022-11-15T02:39:29.492Z,2.53
2022-11-15T02:43:17.021Z,2.38
2022-11-15T02:47:03.378Z,2.13
2022-11-15T02:50:32.410Z,2.67
2022-11-15T02:53:54.572Z,2.50
2022-11-15T02:57:25.520Z,2.72
2022-11-15T03:01:01.345Z,2.77
2022-11-15T03:04:40.490Z,2.30
2022-11-15T03:08:16.639Z,2.35
2022-11-15T03:11:46.676Z,2.63
2022-11-15T03:15:19.489Z,2.70
2022-11-15T03:18:47.813Z,2.30
2022-11-15T03:22:17.496Z,2.38
2022-11-15T03:25:50.765Z,2.10
2022-11-15T03:29:19.781Z,2.28
2022-11-15T03:32:48.805Z,1.77
2022-11-15T03:36:11.036Z,2.60
2022-11-15T03:39:33.405Z,2.05
2022-11-15T03:43:07.313Z,1.90
2022-11-15T03:46:36.297Z,2.95
2022-11-15T03:50:06.882Z,2.25
2022-11-15T03:53:31.980Z,2.00
2022-11-15T03:56:54.664Z,2.65
2022-11-15T04:00:18.626Z,2.15
2022-11-15T04:03:40.764Z,1.98
2022-11-15T04:07:02.983Z,2.38
2022-11-15T04:10:25.473Z,2.00
2022-11-15T04:13:47.376Z,2.55
2022-11-15T04:17:10.822Z,2.20
2022-11-15T04:20:51.253Z,1.75
2022-11-15T04:24:16.420Z,1.58
2022-11-15T04:27:38.295Z,2.63
2022-11-15T04:31:00.518Z,2.17
2022-11-15T04:34:23.905Z,2.60
2022-11-15T04:37:49.298Z,2.58
2022-11-15T04:41:11.667Z,2.83
2022-11-15T04:44:34.059Z,2.20
2022-11-15T04:47:55.958Z,1.88
2022-11-15T04:51:20.093Z,2.13
2022-11-15T04:54:43.209Z,2.20
2022-11-15T04:58:05.395Z,1.77
2022-11-15T05:01:27.740Z,2.60
2022-11-15T05:04:50.057Z,2.30
2022-11-15T05:08:13.283Z,2.47
2022-11-15T05:11:35.358Z,2.15
2022-11-15T05:14:57.079Z,2.28
2022-11-15T05:18:23.387Z,2.63
2022-11-15T05:21:46.341Z,2.15
2022-11-15T05:25:10.752Z,2.22
2022-11-15T05:28:33.480Z,2.20
2022-11-15T05:31:55.430Z,2.05
2022-11-15T05:35:28.047Z,2.40
2022-11-15T05:38:52.004Z,1.90
2022-11-15T05:42:17.885Z,2.60
2022-11-15T05:45:40.314Z,2.05
2022-11-15T05:49:02.966Z,1.58
2022-11-15T05:52:32.506Z,1.30
2022-11-15T05:55:54.806Z,1.45
2022-11-15T05:59:20.048Z,1.50
2022-11-15T06:02:42.059Z,1.50
2022-11-15T06:06:04.458Z,1.67
2022-11-15T06:09:26.594Z,2.13
2022-11-15T06:12:48.945Z,1.67
2022-11-15T06:16:12.294Z,1.75
2022-11-15T06:19:34.530Z,1.90
2022-11-15T06:23:00.270Z,1.45
2022-11-15T06:26:22.746Z,1.93
2022-11-15T06:29:44.780Z,1.83
2022-11-15T06:33:09.743Z,1.38
2022-11-15T06:36:31.829Z,1.88
2022-11-15T06:39:53.970Z,2.00
2022-11-15T06:43:16.548Z,1.40
2022-11-15T06:46:38.862Z,1.90
2022-11-15T06:50:02.342Z,1.95
2022-11-15T06:53:25.012Z,2.00
2022-11-15T06:56:46.765Z,1.63
2022-11-15T07:00:10.982Z,1.73
2022-11-15T07:03:34.311Z,1.65
2022-11-15T07:06:57.812Z,1.90
2022-11-15T07:10:20.157Z,1.67
2022-11-15T07:13:42.302Z,1.70
2022-11-15T07:17:06.969Z,1.87
2022-11-15T07:20:28.923Z,1.80
2022-11-15T07:23:52.342Z,2.13
2022-11-15T07:27:14.432Z,1.95
2022-11-15T07:30:38.926Z,1.50
2022-11-15T07:34:03.445Z,1.43
2022-11-15T07:37:25.217Z,2.00
2022-11-15T07:40:49.261Z,1.83
2022-11-15T07:44:11.299Z,1.65
2022-11-15T07:47:33.284Z,1.95
2022-11-15T07:50:55.118Z,2.10
2022-11-15T07:54:17.144Z,1.48
2022-11-15T07:57:40.699Z,1.73
2022-11-15T08:01:05.815Z,1.42
2022-11-15T08:04:28.492Z,1.90
2022-11-15T08:07:52.744Z,1.33
2022-11-15T08:11:15.568Z,1.70
2022-11-15T08:14:39.474Z,1.67
2022-11-15T08:18:04.787Z,1.92
2022-11-15T08:21:26.830Z,1.63
2022-11-15T08:24:49.037Z,1.63
2022-11-15T08:28:13.142Z,2.10
2022-11-15T08:31:38.021Z,2.08
2022-11-15T08:34:59.872Z,1.38
2022-11-15T08:38:21.825Z,1.67
2022-11-15T08:41:43.863Z,1.87
2022-11-15T08:45:06.824Z,1.52
2022-11-15T08:48:31.623Z,1.52
2022-11-15T08:51:53.932Z,1.40
2022-11-15T08:55:17.632Z,1.67
2022-11-15T08:58:39.867Z,2.40
2022-11-15T09:02:01.966Z,1.75
2022-11-15T09:05:25.582Z,14.40
2022-11-15T09:08:51.917Z,46.15
2022-11-15T09:12:13.855Z,35.08
2022-11-15T09:15:36.674Z,24.30
2022-11-15T09:18:58.531Z,16.80
2022-11-15T09:22:22.178Z,11.45
2022-11-15T09:25:47.146Z,11.95
2022-11-15T09:29:09.292Z,11.98
2022-11-15T09:32:36.406Z,13.13
2022-11-15T09:36:06.987Z,11.40
2022-11-15T09:39:30.269Z,9.98
2022-11-15T09:43:14.474Z,10.27
2022-11-15T09:46:56.309Z,8.68
2022-11-15T09:50:34.052Z,8.60
2022-11-15T09:57:22.433Z,8.70
2022-11-15T10:00:52.862Z,7.93
2022-11-15T10:04:05.528Z,7.22
2022-11-15T10:07:22.432Z,7.17
2022-11-15T10:10:37.537Z,6.70
2022-11-15T10:13:48.825Z,5.28
2022-11-15T10:17:20.505Z,6.63
2022-11-15T10:20:27.509Z,4.95
2022-11-15T10:23:33.892Z,5.57
2022-11-15T10:26:37.449Z,4.88
2022-11-15T10:29:48.493Z,5.28
2022-11-15T10:32:52.283Z,4.40
2022-11-15T10:36:22.229Z,4.95
2022-11-15T10:39:27.083Z,4.70
2022-11-15T10:42:31.845Z,4.10
2022-11-15T10:45:37.014Z,3.58
2022-11-15T10:48:41.441Z,4.32
2022-11-15T10:51:50.172Z,4.72
2022-11-15T10:55:00.367Z,3.80
2022-11-15T10:58:22.348Z,4.43
2022-11-15T11:01:30.960Z,3.83
2022-11-15T11:04:52.513Z,3.28
2022-11-15T11:08:02.148Z,3.78
2022-11-15T11:11:08.642Z,4.10
2022-11-15T11:14:19.877Z,3.47
2022-11-15T11:17:53.574Z,3.28
2022-11-15T11:21:05.228Z,3.78
2022-11-15T11:24:18.088Z,3.50
2022-11-15T11:27:44.143Z,3.40
2022-11-15T11:31:02.669Z,3.60
2022-11-15T11:34:22.672Z,3.78
2022-11-15T11:37:39.139Z,2.70
2022-11-15T11:40:54.826Z,3.95
2022-11-15T11:44:19.178Z,2.90
2022-11-15T11:47:27.174Z,2.75
2022-11-15T11:50:33.149Z,3.40
2022-11-15T11:53:48.421Z,3.25
2022-11-15T11:56:55.139Z,3.40
2022-11-15T12:00:07.599Z,3.50
2022-11-15T12:03:30.755Z,3.20
2022-11-15T12:06:43.647Z,3.72
2022-11-15T12:09:57.779Z,3.55
2022-11-15T12:13:11.048Z,3.33
2022-11-15T12:16:21.653Z,3.90
2022-11-15T12:19:25.570Z,3.45
2022-11-15T12:22:42.150Z,2.45
2022-11-15T12:25:52.513Z,3.53
2022-11-15T12:29:07.842Z,3.80
2022-11-15T12:32:29.027Z,4.13
2022-11-15T12:35:39.744Z,2.80
2022-11-15T12:38:58.557Z,3.58
2022-11-15T12:42:42.128Z,3.17
2022-11-15T12:45:47.964Z,4.00
2022-11-15T12:48:56.202Z,3.73
2022-11-15T12:52:11.109Z,4.25
2022-11-15T12:55:35.758Z,4.20
2022-11-15T12:58:47.159Z,3.67
2022-11-15T13:02:04.031Z,4.10
2022-11-15T13:05:59.123Z,3.20
2022-11-15T13:09:02.887Z,4.50
2022-11-15T13:12:14.508Z,4.28
2022-11-15T13:15:54.031Z,3.53
2022-11-15T13:19:09.606Z,3.83
2022-11-15T13:22:30.772Z,3.40
2022-11-15T13:26:12.335Z,4.25
2022-11-15T13:29:21.830Z,3.63
2022-11-15T13:32:26.673Z,3.63
2022-11-15T13:35:38.849Z,3.30
2022-11-15T13:38:44.097Z,3.77
2022-11-15T13:41:52.014Z,3.58
2022-11-15T13:45:03.311Z,3.50
2022-11-15T13:48:08.185Z,3.95
2022-11-15T13:51:25.779Z,3.17
2022-11-15T13:54:36.067Z,3.13
2022-11-15T13:57:46.381Z,3.25
2022-11-15T14:01:02.640Z,3.85
2022-11-15T14:04:06.280Z,3.42
2022-11-15T14:07:21.422Z,2.83
2022-11-15T14:10:32.047Z,3.20
2022-11-15T14:13:36.867Z,3.42
2022-11-15T14:16:44.699Z,3.28
2022-11-15T14:19:49.202Z,3.85
2022-11-15T14:22:58.171Z,3.28
2022-11-15T14:26:02.103Z,3.33
2022-11-15T14:29:27.292Z,4.13
2022-11-15T14:32:47.716Z,4.13
2022-11-15T14:35:52.287Z,3.70
2022-11-15T14:38:56.351Z,4.20
2022-11-15T14:41:59.968Z,3.47
2022-11-15T14:45:03.823Z,2.90
2022-11-15T14:48:09.326Z,3.88
2022-11-15T14:51:15.858Z,3.45
2022-11-15T14:54:19.779Z,3.53
2022-11-15T14:57:23.675Z,3.20
2022-11-15T15:00:32.378Z,3.05
2022-11-15T15:03:42.296Z,3.00
2022-11-15T15:06:46.173Z,3.10
2022-11-15T15:09:50.152Z,2.88
2022-11-15T15:12:53.751Z,2.63
2022-11-15T15:15:57.324Z,2.88
2022-11-15T15:19:02.371Z,2.95
2022-11-15T15:22:06.203Z,2.67
2022-11-15T15:25:24.269Z,3.30
2022-11-15T15:28:34.078Z,3.20
2022-11-15T15:31:38.312Z,2.38
2022-11-15T15:34:43.146Z,2.72
2022-11-15T15:37:48.953Z,2.40
2022-11-15T15:40:52.377Z,2.88
2022-11-15T15:43:55.911Z,2.10
2022-11-15T15:47:00.347Z,2.63
2022-11-15T15:50:06.878Z,2.53
2022-11-15T15:53:11.571Z,2.88
2022-11-15T15:56:15.315Z,2.40
2022-11-15T15:59:18.706Z,2.80
2022-11-15T16:02:22.514Z,2.92
2022-11-15T16:05:27.275Z,3.47
2022-11-15T16:08:47.606Z,2.42
2022-11-15T16:11:55.551Z,2.72
2022-11-15T16:14:59.601Z,2.90
2022-11-15T16:18:04.344Z,3.10
2022-11-15T16:21:10.705Z,3.08
2022-11-15T16:24:14.155Z,3.72
2022-11-15T16:27:21.365Z,2.28
2022-11-15T16:30:25.660Z,2.30
2022-11-15T16:33:29.275Z,2.63
2022-11-15T16:36:36.875Z,2.85
2022-11-15T16:39:40.423Z,2.53
2022-11-15T16:42:44.040Z,2.55
2022-11-15T16:45:47.925Z,2.60
2022-11-15T16:48:52.428Z,2.63
2022-11-15T16:51:57.330Z,2.65
2022-11-15T16:55:00.670Z,2.55
2022-11-15T16:58:04.308Z,2.13
2022-11-15T17:01:08.986Z,3.47
2022-11-15T17:04:13.482Z,3.15
2022-11-15T17:07:18.465Z,2.38
2022-11-15T17:10:23.309Z,2.72
2022-11-15T17:13:26.732Z,1.90
2022-11-15T17:16:30.611Z,2.67
2022-11-15T17:19:34.180Z,3.10
2022-11-15T17:22:39.157Z,2.75
2022-11-15T17:25:42.987Z,3.78
2022-11-15T17:28:46.756Z,3.83
2022-11-15T17:31:50.180Z,3.83
2022-11-15T17:34:53.653Z,4.13
2022-11-15T17:37:58.374Z,3.28
2022-11-15T17:41:04.124Z,3.65
2022-11-15T17:44:08.005Z,4.50
2022-11-15T17:47:11.507Z,3.37
2022-11-15T17:50:15.387Z,3.40
2022-11-15T17:53:20.222Z,3.42
2022-11-15T17:56:28.268Z,3.42
2022-11-15T17:59:31.986Z,3.13
2022-11-15T18:02:35.903Z,3.17
2022-11-15T18:05:41.063Z,4.10
2022-11-15T18:08:48.289Z,3.58
2022-11-15T18:11:53.532Z,4.53
2022-11-15T18:14:58.214Z,4.20
2022-11-15T18:18:02.338Z,3.57
2022-11-15T18:21:08.392Z,3.67
2022-11-15T18:24:14.589Z,3.67
2022-11-15T18:27:18.432Z,3.90
2022-11-15T18:30:22.823Z,4.05
2022-11-15T18:33:26.678Z,4.77
2022-11-15T18:36:32.116Z,3.92
2022-11-15T18:39:37.901Z,4.25
2022-11-15T18:42:41.372Z,4.22
2022-11-15T18:45:46.804Z,4.60
2022-11-15T18:48:53.072Z,5.07
2022-11-15T18:51:56.997Z,4.93
2022-11-15T18:55:02.268Z,4.07
2022-11-15T18:58:05.699Z,6.43
2022-11-15T19:01:13.192Z,7.00
2022-11-15T19:04:20.006Z,4.77
2022-11-15T19:07:23.799Z,5.82
2022-11-15T19:10:28.562Z,5.78
2022-11-15T19:13:32.536Z,5.22
2022-11-15T19:16:38.487Z,5.38
2022-11-15T19:19:41.975Z,6.63
2022-11-15T19:22:45.823Z,5.15
2022-11-15T19:25:58.811Z,5.35
2022-11-15T19:29:03.700Z,4.70
2022-11-15T19:32:07.395Z,4.65
2022-11-15T19:35:11.028Z,10.53
2022-11-15T19:38:14.961Z,81.15
2022-11-15T19:41:25.086Z,54.20
2022-11-15T19:44:29.077Z,38.10
2022-11-15T19:47:32.580Z,29.08
2022-11-15T19:50:38.513Z,19.33
2022-11-15T19:53:43.269Z,18.80
2022-11-15T19:56:48.482Z,23.00
2022-11-15T19:59:51.926Z,18.38
2022-11-15T20:02:55.664Z,18.67
2022-11-15T20:06:03.597Z,17.80
2022-11-15T20:09:07.629Z,17.08
2022-11-15T20:12:12.465Z,16.30
2022-11-15T20:15:16.294Z,12.93
2022-11-15T20:18:20.439Z,13.15
2022-11-15T20:21:24.101Z,14.43
2022-11-15T20:24:28.034Z,15.02
2022-11-15T20:27:32.843Z,12.20
2022-11-15T20:30:37.802Z,12.82
2022-11-15T20:33:41.849Z,12.50
2022-11-15T20:36:45.140Z,14.47
2022-11-15T20:39:48.917Z,12.75
2022-11-15T20:42:55.703Z,12.05
2022-11-15T20:45:59.531Z,11.93
2022-11-15T20:49:02.817Z,11.10
2022-11-15T20:52:06.523Z,10.43
2022-11-15T20:55:10.847Z,12.52
2022-11-15T20:58:16.824Z,10.63
2022-11-15T21:01:27.362Z,9.63
2022-11-15T21:04:30.918Z,11.40
2022-11-15T21:07:34.317Z,11.13
2022-11-15T21:10:55.854Z,11.02
2022-11-15T21:14:02.050Z,10.00
2022-11-15T21:17:09.578Z,9.00
2022-11-15T21:20:13.664Z,10.70
2022-11-15T21:23:17.666Z,8.83
2022-11-15T21:26:21.083Z,11.10
2022-11-15T21:29:26.288Z,7.88
2022-11-15T21:32:30.399Z,8.93
2022-11-15T21:35:34.648Z,9.50
2022-11-15T21:38:38.266Z,8.53
2022-11-15T21:41:41.900Z,9.35
2022-11-15T21:44:47.169Z,9.57
2022-11-15T21:47:50.761Z,9.35
2022-11-15T21:50:57.598Z,8.93
2022-11-15T21:54:01.923Z,9.70
2022-11-15T21:57:05.209Z,8.20
2022-11-15T22:00:29.824Z,9.15
2022-11-15T22:04:45.128Z,8.27
2022-11-15T22:07:48.906Z,7.20
2022-11-15T22:10:53.775Z,8.43
2022-11-15T22:13:57.833Z,8.88
2022-11-15T22:17:02.687Z,8.13
2022-11-15T22:20:37.290Z,8.38
2022-11-15T22:23:35.547Z,7.72
2022-11-15T22:26:39.404Z,8.13
2022-11-15T22:29:43.410Z,8.82
2022-11-15T22:32:49.353Z,8.93
2022-11-15T22:35:54.550Z,8.18
2022-11-15T22:38:58.745Z,8.93
2022-11-15T22:42:02.496Z,8.70
2022-11-15T22:45:08.025Z,8.38
2022-11-15T22:48:13.256Z,7.70
2022-11-15T22:51:17.168Z,7.60
2022-11-15T22:54:21.227Z,8.35
2022-11-15T22:57:25.225Z,7.73
2022-11-15T23:00:28.819Z,7.93
2022-11-15T23:03:35.498Z,8.15
2022-11-15T23:06:39.184Z,7.47
2022-11-15T23:09:46.517Z,9.13
2022-11-15T23:13:11.867Z,6.23
2022-11-15T23:16:25.839Z,9.30
2022-11-15T23:19:31.343Z,7.82
2022-11-15T23:22:50.568Z,8.70
2022-11-15T23:26:00.212Z,7.40
2022-11-15T23:29:04.323Z,7.00
2022-11-15T23:32:25.519Z,7.53
2022-11-15T23:35:30.914Z,7.60
2022-11-15T23:38:37.289Z,8.00
2022-11-15T23:41:41.265Z,9.68
2022-11-15T23:44:44.875Z,7.97
2022-11-15T23:47:49.002Z,7.60
2022-11-15T23:50:54.015Z,8.38
2022-11-15T23:53:58.350Z,6.97
2022-11-15T23:57:01.934Z,6.97
